MAPA DE AEROPUERTO

INFORMACIÓN METAR y TAF

METAR FOR LXGB
ADDS - METARS form results

(1706 UTC 07 May 2021)
Data provider http://aviationweather.gov/metar/data/
 
METAR text: LXGB 071650Z 08004KT 9999 FEW050 SCT350 22/17 Q1016 NOSIG RMK BLU BLU
Conditions at: LXGB (GIBRALTAR (CIV/M, GI) observed 1650 UTC 07 May 2021
Temperature: 22.0°C (72°F)
Dewpoint: 17.0°C (63°F) [RH = 73%]
Pressure (altimeter): 30.00 inches Hg (1016.0 mb)
Winds: from the E (80 degrees) at 5 MPH (4 knots; 2.1 m/s)
Visibility: 6 or more miles (10+ km)
Ceiling: at least 12,000 feet AGL
Clouds: few clouds at 5000 feet AGL
scattered clouds at 35000 feet AGL
Weather: no significant weather observed at this time

METAR text: LXGB 071621Z 34002KT 9999 FEW050 24/16 Q1016 NOSIG RMK BLU BLU
Conditions at: LXGB (GIBRALTAR (CIV/M, GI) observed 1621 UTC 07 May 2021
Temperature: 24.0°C (75°F)
Dewpoint: 16.0°C (61°F) [RH = 61%]
Pressure (altimeter): 30.00 inches Hg (1016.0 mb)
Winds: from the NNW (340 degrees) at 2 MPH (2 knots; 1.0 m/s)
Visibility: 6 or more miles (10+ km)
Ceiling: at least 12,000 feet AGL
Clouds: few clouds at 5000 feet AGL
Weather: no significant weather observed at this time

Forecast for: LXGB (GIBRALTAR (CIV/M, GI)
Text: TAF LXGB 071639Z 0718/0723 09005KT 9999 FEW050
Forecast period: 1800 to 2300 UTC 07 May 2021
Forecast type: FROM: standard forecast or significant change
Winds: from the E (90 degrees) at 6 MPH (5 knots; 2.6 m/s)
Visibility: 6 or more miles (10+ km)
Ceiling: at least 12,000 feet AGL
Clouds: few clouds at 5000 feet AGL
Weather: no significant weather forecast for this period
Text: PROB30
Forecast period: 1800 to 2300 UTC 07 May 2021
Forecast type: TEMPORARY: The following changes expected for less than half the time period
Visibility: 0.25 miles (0.40 km)
Ceiling: at least 12,000 feet AGL
Clouds: scattered clouds at 0 feet AGL
Weather: PRFG  (partial fog)